sensor_id;sensor_type;location;lat;lon;timestamp;P1;durP1;ratioP1;P2;durP2;ratioP2
68214;SDS011;55036;52.138;5.236;2022-09-09T00:04:13;2.42;;;1.48;;
68214;SDS011;55036;52.138;5.236;2022-09-09T00:07:10;4.30;;;1.70;;
68214;SDS011;55036;52.138;5.236;2022-09-09T00:09:54;6.55;;;2.38;;
68214;SDS011;55036;52.138;5.236;2022-09-09T00:15:15;2.58;;;1.60;;
68214;SDS011;55036;52.138;5.236;2022-09-09T00:17:53;5.15;;;1.98;;
68214;SDS011;55036;52.138;5.236;2022-09-09T00:23:27;5.63;;;2.10;;
68214;SDS011;55036;52.138;5.236;2022-09-09T00:31:23;2.83;;;1.98;;
68214;SDS011;55036;52.138;5.236;2022-09-09T00:33:53;4.55;;;2.13;;
68214;SDS011;55036;52.138;5.236;2022-09-09T00:36:24;7.43;;;2.60;;
68214;SDS011;55036;52.138;5.236;2022-09-09T00:38:56;2.65;;;2.10;;
68214;SDS011;55036;52.138;5.236;2022-09-09T00:41:29;3.38;;;2.03;;
68214;SDS011;55036;52.138;5.236;2022-09-09T00:44:03;3.42;;;2.28;;
68214;SDS011;55036;52.138;5.236;2022-09-09T00:47:04;4.15;;;2.45;;
68214;SDS011;55036;52.138;5.236;2022-09-09T00:50:00;5.72;;;2.58;;
68214;SDS011;55036;52.138;5.236;2022-09-09T00:52:39;3.95;;;2.05;;
68214;SDS011;55036;52.138;5.236;2022-09-09T00:55:25;3.75;;;2.22;;
68214;SDS011;55036;52.138;5.236;2022-09-09T00:57:58;5.78;;;2.97;;
68214;SDS011;55036;52.138;5.236;2022-09-09T01:00:27;4.00;;;2.30;;
68214;SDS011;55036;52.138;5.236;2022-09-09T01:05:53;5.57;;;2.45;;
68214;SDS011;55036;52.138;5.236;2022-09-09T01:08:36;3.45;;;2.25;;
68214;SDS011;55036;52.138;5.236;2022-09-09T01:11:22;4.25;;;2.92;;
68214;SDS011;55036;52.138;5.236;2022-09-09T01:14:10;4.82;;;2.95;;
68214;SDS011;55036;52.138;5.236;2022-09-09T01:16:58;4.28;;;2.67;;
68214;SDS011;55036;52.138;5.236;2022-09-09T01:27:33;4.00;;;2.53;;
68214;SDS011;55036;52.138;5.236;2022-09-09T01:30:02;4.57;;;3.10;;
68214;SDS011;55036;52.138;5.236;2022-09-09T01:35:13;3.92;;;2.80;;
68214;SDS011;55036;52.138;5.236;2022-09-09T01:40:15;3.75;;;2.80;;
68214;SDS011;55036;52.138;5.236;2022-09-09T01:42:43;4.05;;;2.83;;
68214;SDS011;55036;52.138;5.236;2022-09-09T01:45:09;5.32;;;3.00;;
68214;SDS011;55036;52.138;5.236;2022-09-09T01:47:36;5.82;;;3.25;;
68214;SDS011;55036;52.138;5.236;2022-09-09T01:50:03;6.22;;;3.00;;
68214;SDS011;55036;52.138;5.236;2022-09-09T01:52:31;5.13;;;3.05;;
68214;SDS011;55036;52.138;5.236;2022-09-09T01:55:01;5.38;;;3.08;;
68214;SDS011;55036;52.138;5.236;2022-09-09T02:00:20;4.95;;;3.05;;
68214;SDS011;55036;52.138;5.236;2022-09-09T02:03:00;5.75;;;3.20;;
68214;SDS011;55036;52.138;5.236;2022-09-09T02:05:50;4.47;;;3.20;;
68214;SDS011;55036;52.138;5.236;2022-09-09T02:08:42;5.22;;;3.35;;
68214;SDS011;55036;52.138;5.236;2022-09-09T02:13:47;7.30;;;3.42;;
68214;SDS011;55036;52.138;5.236;2022-09-09T02:16:22;7.72;;;3.70;;
68214;SDS011;55036;52.138;5.236;2022-09-09T02:21:23;5.07;;;3.67;;
68214;SDS011;55036;52.138;5.236;2022-09-09T02:23:54;7.80;;;3.43;;
68214;SDS011;55036;52.138;5.236;2022-09-09T02:26:24;4.80;;;3.58;;
68214;SDS011;55036;52.138;5.236;2022-09-09T02:28:53;7.30;;;4.13;;
68214;SDS011;55036;52.138;5.236;2022-09-09T02:31:24;5.13;;;3.25;;
68214;SDS011;55036;52.138;5.236;2022-09-09T02:33:52;4.72;;;2.97;;
68214;SDS011;55036;52.138;5.236;2022-09-09T02:38:51;6.47;;;3.60;;
68214;SDS011;55036;52.138;5.236;2022-09-09T02:41:20;6.35;;;3.33;;
68214;SDS011;55036;52.138;5.236;2022-09-09T02:43:52;5.32;;;3.05;;
68214;SDS011;55036;52.138;5.236;2022-09-09T02:46:32;6.53;;;3.50;;
68214;SDS011;55036;52.138;5.236;2022-09-09T02:49:03;6.88;;;3.50;;
68214;SDS011;55036;52.138;5.236;2022-09-09T02:54:16;6.22;;;3.85;;
68214;SDS011;55036;52.138;5.236;2022-09-09T02:56:53;5.53;;;3.55;;
68214;SDS011;55036;52.138;5.236;2022-09-09T02:59:23;10.52;;;3.90;;
68214;SDS011;55036;52.138;5.236;2022-09-09T03:01:52;6.00;;;4.10;;
68214;SDS011;55036;52.138;5.236;2022-09-09T03:04:19;6.13;;;3.65;;
68214;SDS011;55036;52.138;5.236;2022-09-09T03:06:46;8.60;;;3.72;;
68214;SDS011;55036;52.138;5.236;2022-09-09T03:09:13;5.18;;;3.65;;
68214;SDS011;55036;52.138;5.236;2022-09-09T03:11:39;7.47;;;3.78;;
68214;SDS011;55036;52.138;5.236;2022-09-09T03:14:06;8.10;;;3.80;;
68214;SDS011;55036;52.138;5.236;2022-09-09T03:16:34;6.88;;;4.10;;
68214;SDS011;55036;52.138;5.236;2022-09-09T03:19:01;7.78;;;4.05;;
68214;SDS011;55036;52.138;5.236;2022-09-09T03:21:28;8.77;;;3.95;;
68214;SDS011;55036;52.138;5.236;2022-09-09T03:23:54;6.05;;;4.05;;
68214;SDS011;55036;52.138;5.236;2022-09-09T03:26:21;7.57;;;3.70;;
68214;SDS011;55036;52.138;5.236;2022-09-09T03:28:49;4.75;;;4.13;;
68214;SDS011;55036;52.138;5.236;2022-09-09T03:31:17;6.30;;;3.90;;
68214;SDS011;55036;52.138;5.236;2022-09-09T03:33:45;11.48;;;4.28;;
68214;SDS011;55036;52.138;5.236;2022-09-09T03:36:12;5.88;;;4.47;;
68214;SDS011;55036;52.138;5.236;2022-09-09T03:38:39;8.77;;;4.38;;
68214;SDS011;55036;52.138;5.236;2022-09-09T03:41:06;7.30;;;4.03;;
68214;SDS011;55036;52.138;5.236;2022-09-09T03:43:33;7.50;;;3.92;;
68214;SDS011;55036;52.138;5.236;2022-09-09T03:46:00;7.25;;;4.47;;
68214;SDS011;55036;52.138;5.236;2022-09-09T03:48:27;6.60;;;4.40;;
68214;SDS011;55036;52.138;5.236;2022-09-09T03:50:55;7.32;;;4.22;;
68214;SDS011;55036;52.138;5.236;2022-09-09T03:53:24;6.88;;;4.32;;
68214;SDS011;55036;52.138;5.236;2022-09-09T03:55:51;8.20;;;3.92;;
68214;SDS011;55036;52.138;5.236;2022-09-09T03:58:23;10.85;;;4.32;;
68214;SDS011;55036;52.138;5.236;2022-09-09T04:00:54;7.65;;;4.65;;
68214;SDS011;55036;52.138;5.236;2022-09-09T04:03:25;9.93;;;4.55;;
68214;SDS011;55036;52.138;5.236;2022-09-09T04:05:54;7.20;;;4.07;;
68214;SDS011;55036;52.138;5.236;2022-09-09T04:08:23;5.90;;;3.88;;
68214;SDS011;55036;52.138;5.236;2022-09-09T04:10:52;8.05;;;4.22;;
68214;SDS011;55036;52.138;5.236;2022-09-09T04:13:23;7.47;;;4.20;;
68214;SDS011;55036;52.138;5.236;2022-09-09T04:15:51;6.97;;;4.65;;
68214;SDS011;55036;52.138;5.236;2022-09-09T04:20:50;7.90;;;4.22;;
68214;SDS011;55036;52.138;5.236;2022-09-09T04:23:17;6.63;;;4.38;;
68214;SDS011;55036;52.138;5.236;2022-09-09T04:25:47;8.55;;;4.43;;
68214;SDS011;55036;52.138;5.236;2022-09-09T04:28:15;5.28;;;4.30;;
68214;SDS011;55036;52.138;5.236;2022-09-09T04:30:43;12.02;;;4.22;;
68214;SDS011;55036;52.138;5.236;2022-09-09T04:33:11;6.82;;;4.82;;
68214;SDS011;55036;52.138;5.236;2022-09-09T04:35:39;6.93;;;4.72;;
68214;SDS011;55036;52.138;5.236;2022-09-09T04:38:09;7.60;;;4.88;;
68214;SDS011;55036;52.138;5.236;2022-09-09T04:40:36;6.68;;;4.53;;
68214;SDS011;55036;52.138;5.236;2022-09-09T04:43:02;8.68;;;4.53;;
68214;SDS011;55036;52.138;5.236;2022-09-09T04:45:37;5.78;;;4.32;;
68214;SDS011;55036;52.138;5.236;2022-09-09T04:48:06;9.57;;;4.55;;
68214;SDS011;55036;52.138;5.236;2022-09-09T04:50:33;5.00;;;4.30;;
68214;SDS011;55036;52.138;5.236;2022-09-09T04:53:00;6.90;;;4.15;;
68214;SDS011;55036;52.138;5.236;2022-09-09T04:55:28;8.80;;;4.38;;
68214;SDS011;55036;52.138;5.236;2022-09-09T04:57:54;8.95;;;4.25;;
68214;SDS011;55036;52.138;5.236;2022-09-09T05:00:21;9.13;;;4.60;;
68214;SDS011;55036;52.138;5.236;2022-09-09T05:02:48;7.63;;;4.40;;
68214;SDS011;55036;52.138;5.236;2022-09-09T05:05:14;6.95;;;4.40;;
68214;SDS011;55036;52.138;5.236;2022-09-09T05:07:41;7.05;;;4.00;;
68214;SDS011;55036;52.138;5.236;2022-09-09T05:10:09;9.75;;;4.50;;
68214;SDS011;55036;52.138;5.236;2022-09-09T05:12:36;8.27;;;4.38;;
68214;SDS011;55036;52.138;5.236;2022-09-09T05:15:03;8.27;;;4.55;;
68214;SDS011;55036;52.138;5.236;2022-09-09T05:17:30;6.53;;;3.95;;
68214;SDS011;55036;52.138;5.236;2022-09-09T05:19:57;7.55;;;4.22;;
68214;SDS011;55036;52.138;5.236;2022-09-09T05:22:24;6.38;;;4.30;;
68214;SDS011;55036;52.138;5.236;2022-09-09T05:24:51;5.25;;;3.97;;
68214;SDS011;55036;52.138;5.236;2022-09-09T05:27:18;9.05;;;4.20;;
68214;SDS011;55036;52.138;5.236;2022-09-09T05:29:45;9.60;;;4.53;;
68214;SDS011;55036;52.138;5.236;2022-09-09T05:32:12;6.60;;;4.32;;
68214;SDS011;55036;52.138;5.236;2022-09-09T05:34:41;7.22;;;4.20;;
68214;SDS011;55036;52.138;5.236;2022-09-09T05:37:07;9.23;;;4.28;;
68214;SDS011;55036;52.138;5.236;2022-09-09T05:39:34;12.13;;;4.65;;
68214;SDS011;55036;52.138;5.236;2022-09-09T05:42:04;5.85;;;3.65;;
68214;SDS011;55036;52.138;5.236;2022-09-09T05:44:31;8.90;;;4.13;;
68214;SDS011;55036;52.138;5.236;2022-09-09T05:46:58;9.50;;;4.00;;
68214;SDS011;55036;52.138;5.236;2022-09-09T05:49:25;7.10;;;4.13;;
68214;SDS011;55036;52.138;5.236;2022-09-09T05:51:51;6.68;;;3.88;;
68214;SDS011;55036;52.138;5.236;2022-09-09T05:54:18;9.20;;;3.50;;
68214;SDS011;55036;52.138;5.236;2022-09-09T05:56:45;9.05;;;3.70;;
68214;SDS011;55036;52.138;5.236;2022-09-09T05:59:16;6.10;;;3.42;;
68214;SDS011;55036;52.138;5.236;2022-09-09T06:01:44;5.25;;;3.45;;
68214;SDS011;55036;52.138;5.236;2022-09-09T06:04:11;10.00;;;3.47;;
68214;SDS011;55036;52.138;5.236;2022-09-09T06:06:38;6.70;;;3.42;;
68214;SDS011;55036;52.138;5.236;2022-09-09T06:09:06;9.77;;;3.72;;
68214;SDS011;55036;52.138;5.236;2022-09-09T06:11:36;6.30;;;3.30;;
68214;SDS011;55036;52.138;5.236;2022-09-09T06:14:04;9.85;;;3.22;;
68214;SDS011;55036;52.138;5.236;2022-09-09T06:16:32;8.30;;;3.10;;
68214;SDS011;55036;52.138;5.236;2022-09-09T06:19:00;6.65;;;3.03;;
68214;SDS011;55036;52.138;5.236;2022-09-09T06:21:30;9.00;;;3.55;;
68214;SDS011;55036;52.138;5.236;2022-09-09T06:24:03;7.47;;;2.80;;
68214;SDS011;55036;52.138;5.236;2022-09-09T06:26:31;6.03;;;2.75;;
68214;SDS011;55036;52.138;5.236;2022-09-09T06:28:59;5.75;;;2.78;;
68214;SDS011;55036;52.138;5.236;2022-09-09T06:31:28;10.20;;;3.60;;
68214;SDS011;55036;52.138;5.236;2022-09-09T06:34:00;11.35;;;2.92;;
68214;SDS011;55036;52.138;5.236;2022-09-09T06:36:29;7.70;;;2.95;;
68214;SDS011;55036;52.138;5.236;2022-09-09T06:38:57;9.90;;;3.70;;
68214;SDS011;55036;52.138;5.236;2022-09-09T06:41:25;7.07;;;2.80;;
68214;SDS011;55036;52.138;5.236;2022-09-09T06:43:54;4.72;;;2.22;;
68214;SDS011;55036;52.138;5.236;2022-09-09T06:46:24;12.50;;;2.25;;
68214;SDS011;55036;52.138;5.236;2022-09-09T06:48:57;5.32;;;2.33;;
68214;SDS011;55036;52.138;5.236;2022-09-09T06:51:27;8.82;;;2.65;;
68214;SDS011;55036;52.138;5.236;2022-09-09T06:53:58;10.32;;;3.00;;
68214;SDS011;55036;52.138;5.236;2022-09-09T06:56:29;9.43;;;2.65;;
68214;SDS011;55036;52.138;5.236;2022-09-09T06:58:59;14.02;;;2.80;;
68214;SDS011;55036;52.138;5.236;2022-09-09T07:01:31;7.32;;;2.25;;
68214;SDS011;55036;52.138;5.236;2022-09-09T07:04:00;6.43;;;2.30;;
68214;SDS011;55036;52.138;5.236;2022-09-09T07:06:28;12.95;;;2.60;;
68214;SDS011;55036;52.138;5.236;2022-09-09T07:08:57;6.35;;;2.25;;
68214;SDS011;55036;52.138;5.236;2022-09-09T07:11:29;12.98;;;2.97;;
68214;SDS011;55036;52.138;5.236;2022-09-09T07:13:58;6.95;;;2.45;;
68214;SDS011;55036;52.138;5.236;2022-09-09T07:16:25;6.50;;;2.13;;
68214;SDS011;55036;52.138;5.236;2022-09-09T07:18:57;10.45;;;2.03;;
68214;SDS011;55036;52.138;5.236;2022-09-09T07:21:25;7.85;;;2.78;;
68214;SDS011;55036;52.138;5.236;2022-09-09T07:23:53;8.27;;;2.67;;
68214;SDS011;55036;52.138;5.236;2022-09-09T07:26:22;9.23;;;2.13;;
68214;SDS011;55036;52.138;5.236;2022-09-09T07:28:51;10.18;;;2.33;;
68214;SDS011;55036;52.138;5.236;2022-09-09T07:31:19;5.75;;;2.63;;
68214;SDS011;55036;52.138;5.236;2022-09-09T07:33:48;7.28;;;2.17;;
68214;SDS011;55036;52.138;5.236;2022-09-09T07:38:49;9.38;;;2.20;;
68214;SDS011;55036;52.138;5.236;2022-09-09T07:41:19;5.60;;;1.92;;
68214;SDS011;55036;52.138;5.236;2022-09-09T07:43:49;9.10;;;2.85;;
68214;SDS011;55036;52.138;5.236;2022-09-09T07:46:16;7.30;;;3.25;;
68214;SDS011;55036;52.138;5.236;2022-09-09T07:48:49;7.65;;;2.30;;
68214;SDS011;55036;52.138;5.236;2022-09-09T07:51:19;8.60;;;2.47;;
68214;SDS011;55036;52.138;5.236;2022-09-09T07:53:50;6.60;;;1.83;;
68214;SDS011;55036;52.138;5.236;2022-09-09T07:58:50;6.32;;;2.10;;
68214;SDS011;55036;52.138;5.236;2022-09-09T08:01:22;7.70;;;2.17;;
68214;SDS011;55036;52.138;5.236;2022-09-09T08:03:55;7.80;;;2.10;;
68214;SDS011;55036;52.138;5.236;2022-09-09T08:06:27;7.75;;;2.35;;
68214;SDS011;55036;52.138;5.236;2022-09-09T08:08:56;9.60;;;2.47;;
68214;SDS011;55036;52.138;5.236;2022-09-09T08:11:23;9.85;;;2.13;;
68214;SDS011;55036;52.138;5.236;2022-09-09T08:13:52;8.80;;;2.45;;
68214;SDS011;55036;52.138;5.236;2022-09-09T08:16:24;7.05;;;1.70;;
68214;SDS011;55036;52.138;5.236;2022-09-09T08:18:56;6.05;;;2.10;;
68214;SDS011;55036;52.138;5.236;2022-09-09T08:21:25;7.85;;;2.00;;
68214;SDS011;55036;52.138;5.236;2022-09-09T08:23:54;5.88;;;1.67;;
68214;SDS011;55036;52.138;5.236;2022-09-09T08:26:27;5.80;;;1.85;;
68214;SDS011;55036;52.138;5.236;2022-09-09T08:28:59;8.93;;;2.03;;
68214;SDS011;55036;52.138;5.236;2022-09-09T08:31:27;10.32;;;2.80;;
68214;SDS011;55036;52.138;5.236;2022-09-09T08:34:06;10.40;;;2.30;;
68214;SDS011;55036;52.138;5.236;2022-09-09T08:36:43;9.18;;;2.38;;
68214;SDS011;55036;52.138;5.236;2022-09-09T08:39:12;6.47;;;2.00;;
68214;SDS011;55036;52.138;5.236;2022-09-09T08:58:49;6.88;;;2.08;;
68214;SDS011;55036;52.138;5.236;2022-09-09T09:12:25;9.88;;;2.45;;
68214;SDS011;55036;52.138;5.236;2022-09-09T09:14:57;10.48;;;3.08;;
68214;SDS011;55036;52.138;5.236;2022-09-09T09:17:26;13.68;;;4.18;;
68214;SDS011;55036;52.138;5.236;2022-09-09T09:19:57;11.15;;;1.98;;
68214;SDS011;55036;52.138;5.236;2022-09-09T09:22:27;7.07;;;2.05;;
68214;SDS011;55036;52.138;5.236;2022-09-09T09:25:14;9.48;;;3.63;;
68214;SDS011;55036;52.138;5.236;2022-09-09T09:27:57;9.77;;;2.35;;
68214;SDS011;55036;52.138;5.236;2022-09-09T09:33:30;15.38;;;3.95;;
68214;SDS011;55036;52.138;5.236;2022-09-09T09:36:12;9.23;;;2.28;;
68214;SDS011;55036;52.138;5.236;2022-09-09T09:38:52;10.38;;;2.55;;
68214;SDS011;55036;52.138;5.236;2022-09-09T09:41:42;8.10;;;2.40;;
68214;SDS011;55036;52.138;5.236;2022-09-09T09:44:26;9.13;;;2.33;;
68214;SDS011;55036;52.138;5.236;2022-09-09T09:47:07;9.85;;;3.30;;
68214;SDS011;55036;52.138;5.236;2022-09-09T09:49:37;5.68;;;2.00;;
68214;SDS011;55036;52.138;5.236;2022-09-09T09:52:04;8.77;;;2.65;;
68214;SDS011;55036;52.138;5.236;2022-09-09T09:54:33;8.27;;;2.80;;
68214;SDS011;55036;52.138;5.236;2022-09-09T09:57:08;10.88;;;3.35;;
68214;SDS011;55036;52.138;5.236;2022-09-09T09:59:41;13.27;;;4.10;;
68214;SDS011;55036;52.138;5.236;2022-09-09T10:07:39;10.27;;;3.63;;
68214;SDS011;55036;52.138;5.236;2022-09-09T10:10:08;11.43;;;3.25;;
68214;SDS011;55036;52.138;5.236;2022-09-09T10:13:03;9.80;;;3.00;;
68214;SDS011;55036;52.138;5.236;2022-09-09T10:18:30;7.93;;;2.60;;
68214;SDS011;55036;52.138;5.236;2022-09-09T10:21:19;8.98;;;2.75;;
68214;SDS011;55036;52.138;5.236;2022-09-09T10:30:07;8.90;;;2.75;;
68214;SDS011;55036;52.138;5.236;2022-09-09T10:32:37;9.60;;;3.58;;
68214;SDS011;55036;52.138;5.236;2022-09-09T10:35:29;6.75;;;2.80;;
68214;SDS011;55036;52.138;5.236;2022-09-09T10:40:46;10.75;;;3.40;;
68214;SDS011;55036;52.138;5.236;2022-09-09T10:52:00;9.57;;;3.65;;
68214;SDS011;55036;52.138;5.236;2022-09-09T10:54:56;12.68;;;3.53;;
68214;SDS011;55036;52.138;5.236;2022-09-09T10:57:36;8.50;;;3.10;;
68214;SDS011;55036;52.138;5.236;2022-09-09T11:00:14;12.50;;;2.70;;
68214;SDS011;55036;52.138;5.236;2022-09-09T11:02:42;5.03;;;2.50;;
68214;SDS011;55036;52.138;5.236;2022-09-09T11:05:12;9.02;;;2.70;;
68214;SDS011;55036;52.138;5.236;2022-09-09T11:07:53;6.80;;;2.50;;
68214;SDS011;55036;52.138;5.236;2022-09-09T11:10:36;9.43;;;3.63;;
68214;SDS011;55036;52.138;5.236;2022-09-09T11:13:10;7.45;;;2.92;;
68214;SDS011;55036;52.138;5.236;2022-09-09T11:15:45;11.60;;;2.20;;
68214;SDS011;55036;52.138;5.236;2022-09-09T11:18:18;12.27;;;2.55;;
68214;SDS011;55036;52.138;5.236;2022-09-09T11:20:47;5.85;;;2.25;;
68214;SDS011;55036;52.138;5.236;2022-09-09T11:23:41;10.43;;;3.15;;
68214;SDS011;55036;52.138;5.236;2022-09-09T11:26:15;8.07;;;3.15;;
68214;SDS011;55036;52.138;5.236;2022-09-09T11:31:31;6.68;;;2.70;;
68214;SDS011;55036;52.138;5.236;2022-09-09T11:34:08;7.28;;;2.78;;
68214;SDS011;55036;52.138;5.236;2022-09-09T11:36:56;6.40;;;1.67;;
68214;SDS011;55036;52.138;5.236;2022-09-09T11:39:36;6.35;;;2.22;;
68214;SDS011;55036;52.138;5.236;2022-09-09T11:44:39;6.35;;;1.77;;
68214;SDS011;55036;52.138;5.236;2022-09-09T11:47:22;6.28;;;2.00;;
68214;SDS011;55036;52.138;5.236;2022-09-09T11:50:09;3.67;;;1.40;;
68214;SDS011;55036;52.138;5.236;2022-09-09T11:53:03;6.55;;;2.10;;
68214;SDS011;55036;52.138;5.236;2022-09-09T11:55:39;6.22;;;2.22;;
68214;SDS011;55036;52.138;5.236;2022-09-09T12:00:38;3.80;;;1.92;;
68214;SDS011;55036;52.138;5.236;2022-09-09T12:08:46;7.00;;;2.63;;
68214;SDS011;55036;52.138;5.236;2022-09-09T12:11:28;3.72;;;1.88;;
68214;SDS011;55036;52.138;5.236;2022-09-09T12:13:57;6.43;;;2.22;;
68214;SDS011;55036;52.138;5.236;2022-09-09T12:16:33;6.80;;;2.03;;
68214;SDS011;55036;52.138;5.236;2022-09-09T12:19:20;7.03;;;1.95;;
68214;SDS011;55036;52.138;5.236;2022-09-09T12:22:01;7.00;;;2.58;;
68214;SDS011;55036;52.138;5.236;2022-09-09T12:24:42;5.15;;;2.10;;
68214;SDS011;55036;52.138;5.236;2022-09-09T12:27:18;7.85;;;2.42;;
68214;SDS011;55036;52.138;5.236;2022-09-09T12:29:56;7.55;;;2.67;;
68214;SDS011;55036;52.138;5.236;2022-09-09T12:32:34;7.65;;;2.70;;
68214;SDS011;55036;52.138;5.236;2022-09-09T12:35:09;7.13;;;2.20;;
68214;SDS011;55036;52.138;5.236;2022-09-09T12:37:47;5.78;;;2.15;;
68214;SDS011;55036;52.138;5.236;2022-09-09T12:42:50;5.82;;;2.50;;
68214;SDS011;55036;52.138;5.236;2022-09-09T12:45:18;4.18;;;1.80;;
68214;SDS011;55036;52.138;5.236;2022-09-09T12:47:51;5.03;;;2.38;;
68214;SDS011;55036;52.138;5.236;2022-09-09T12:50:24;5.57;;;2.17;;
68214;SDS011;55036;52.138;5.236;2022-09-09T12:52:54;6.65;;;2.20;;
68214;SDS011;55036;52.138;5.236;2022-09-09T12:55:32;6.72;;;2.55;;
68214;SDS011;55036;52.138;5.236;2022-09-09T12:58:03;6.60;;;2.30;;
68214;SDS011;55036;52.138;5.236;2022-09-09T13:00:32;6.50;;;2.45;;
68214;SDS011;55036;52.138;5.236;2022-09-09T13:03:13;7.78;;;2.17;;
68214;SDS011;55036;52.138;5.236;2022-09-09T13:05:43;6.15;;;2.55;;
68214;SDS011;55036;52.138;5.236;2022-09-09T13:08:10;9.55;;;2.65;;
68214;SDS011;55036;52.138;5.236;2022-09-09T13:10:40;6.50;;;2.38;;
68214;SDS011;55036;52.138;5.236;2022-09-09T13:13:21;8.52;;;2.78;;
68214;SDS011;55036;52.138;5.236;2022-09-09T13:15:51;5.95;;;2.55;;
68214;SDS011;55036;52.138;5.236;2022-09-09T13:18:21;5.28;;;2.40;;
68214;SDS011;55036;52.138;5.236;2022-09-09T13:20:50;7.03;;;2.40;;
68214;SDS011;55036;52.138;5.236;2022-09-09T13:23:18;6.50;;;2.15;;
68214;SDS011;55036;52.138;5.236;2022-09-09T13:25:53;6.75;;;2.42;;
68214;SDS011;55036;52.138;5.236;2022-09-09T13:28:26;4.03;;;2.28;;
68214;SDS011;55036;52.138;5.236;2022-09-09T13:31:00;5.35;;;2.40;;
68214;SDS011;55036;52.138;5.236;2022-09-09T13:33:33;6.40;;;2.53;;
68214;SDS011;55036;52.138;5.236;2022-09-09T13:36:11;5.63;;;2.78;;
68214;SDS011;55036;52.138;5.236;2022-09-09T13:38:52;9.18;;;2.88;;
68214;SDS011;55036;52.138;5.236;2022-09-09T13:41:35;5.82;;;2.60;;
68214;SDS011;55036;52.138;5.236;2022-09-09T13:44:17;7.70;;;2.92;;
68214;SDS011;55036;52.138;5.236;2022-09-09T13:46:59;6.35;;;2.90;;
68214;SDS011;55036;52.138;5.236;2022-09-09T13:49:27;6.03;;;3.05;;
68214;SDS011;55036;52.138;5.236;2022-09-09T13:52:03;7.32;;;2.80;;
68214;SDS011;55036;52.138;5.236;2022-09-09T13:54:40;6.00;;;2.97;;
68214;SDS011;55036;52.138;5.236;2022-09-09T13:57:15;8.25;;;2.88;;
68214;SDS011;55036;52.138;5.236;2022-09-09T13:59:44;7.75;;;2.80;;
68214;SDS011;55036;52.138;5.236;2022-09-09T14:02:31;4.60;;;3.08;;
68214;SDS011;55036;52.138;5.236;2022-09-09T14:04:58;6.47;;;2.70;;
68214;SDS011;55036;52.138;5.236;2022-09-09T14:07:25;7.70;;;2.75;;
68214;SDS011;55036;52.138;5.236;2022-09-09T14:09:53;8.77;;;3.00;;
68214;SDS011;55036;52.138;5.236;2022-09-09T14:12:19;7.10;;;2.75;;
68214;SDS011;55036;52.138;5.236;2022-09-09T14:14:46;7.53;;;2.70;;
68214;SDS011;55036;52.138;5.236;2022-09-09T14:17:13;7.38;;;2.70;;
68214;SDS011;55036;52.138;5.236;2022-09-09T14:19:40;5.32;;;2.70;;
68214;SDS011;55036;52.138;5.236;2022-09-09T14:22:07;6.07;;;3.30;;
68214;SDS011;55036;52.138;5.236;2022-09-09T14:24:33;11.35;;;3.60;;
68214;SDS011;55036;52.138;5.236;2022-09-09T14:27:00;6.63;;;3.17;;
68214;SDS011;55036;52.138;5.236;2022-09-09T14:29:27;5.38;;;3.33;;
68214;SDS011;55036;52.138;5.236;2022-09-09T14:31:53;5.25;;;3.55;;
68214;SDS011;55036;52.138;5.236;2022-09-09T14:34:20;7.00;;;3.63;;
68214;SDS011;55036;52.138;5.236;2022-09-09T14:36:47;8.43;;;4.25;;
68214;SDS011;55036;52.138;5.236;2022-09-09T14:39:14;11.15;;;3.47;;
68214;SDS011;55036;52.138;5.236;2022-09-09T14:41:41;5.30;;;3.35;;
68214;SDS011;55036;52.138;5.236;2022-09-09T14:44:07;6.00;;;3.38;;
68214;SDS011;55036;52.138;5.236;2022-09-09T14:46:34;7.13;;;3.72;;
68214;SDS011;55036;52.138;5.236;2022-09-09T14:49:01;8.38;;;3.20;;
68214;SDS011;55036;52.138;5.236;2022-09-09T14:51:28;6.93;;;2.92;;
68214;SDS011;55036;52.138;5.236;2022-09-09T14:53:55;6.43;;;3.13;;
68214;SDS011;55036;52.138;5.236;2022-09-09T14:56:25;6.93;;;3.30;;
68214;SDS011;55036;52.138;5.236;2022-09-09T14:58:53;7.05;;;3.28;;
68214;SDS011;55036;52.138;5.236;2022-09-09T15:01:21;8.55;;;3.20;;
68214;SDS011;55036;52.138;5.236;2022-09-09T15:03:50;5.80;;;2.60;;
68214;SDS011;55036;52.138;5.236;2022-09-09T15:06:18;6.93;;;3.13;;
68214;SDS011;55036;52.138;5.236;2022-09-09T15:08:46;7.85;;;2.70;;
68214;SDS011;55036;52.138;5.236;2022-09-09T15:11:13;5.18;;;2.00;;
68214;SDS011;55036;52.138;5.236;2022-09-09T15:13:41;5.32;;;2.22;;
68214;SDS011;55036;52.138;5.236;2022-09-09T15:16:10;5.18;;;2.17;;
68214;SDS011;55036;52.138;5.236;2022-09-09T15:18:44;5.45;;;1.95;;
68214;SDS011;55036;52.138;5.236;2022-09-09T15:21:13;4.28;;;1.98;;
68214;SDS011;55036;52.138;5.236;2022-09-09T15:23:42;3.97;;;1.80;;
68214;SDS011;55036;52.138;5.236;2022-09-09T15:26:09;6.65;;;1.70;;
68214;SDS011;55036;52.138;5.236;2022-09-09T15:28:37;3.47;;;1.52;;
68214;SDS011;55036;52.138;5.236;2022-09-09T15:31:05;6.47;;;1.80;;
68214;SDS011;55036;52.138;5.236;2022-09-09T15:33:53;3.20;;;1.67;;
68214;SDS011;55036;52.138;5.236;2022-09-09T15:36:36;4.43;;;1.92;;
68214;SDS011;55036;52.138;5.236;2022-09-09T15:39:09;5.53;;;1.67;;
68214;SDS011;55036;52.138;5.236;2022-09-09T15:41:42;3.78;;;1.70;;
68214;SDS011;55036;52.138;5.236;2022-09-09T15:44:10;5.85;;;1.48;;
68214;SDS011;55036;52.138;5.236;2022-09-09T15:46:49;4.30;;;1.63;;
68214;SDS011;55036;52.138;5.236;2022-09-09T15:49:21;4.07;;;1.63;;
68214;SDS011;55036;52.138;5.236;2022-09-09T15:51:52;4.65;;;2.03;;
68214;SDS011;55036;52.138;5.236;2022-09-09T15:54:24;4.90;;;1.60;;
68214;SDS011;55036;52.138;5.236;2022-09-09T15:56:53;4.28;;;1.02;;
68214;SDS011;55036;52.138;5.236;2022-09-09T15:59:25;6.72;;;1.48;;
68214;SDS011;55036;52.138;5.236;2022-09-09T16:01:57;5.18;;;1.40;;
68214;SDS011;55036;52.138;5.236;2022-09-09T16:04:26;4.10;;;1.52;;
68214;SDS011;55036;52.138;5.236;2022-09-09T16:06:59;4.43;;;1.67;;
68214;SDS011;55036;52.138;5.236;2022-09-09T16:09:30;2.30;;;1.17;;
68214;SDS011;55036;52.138;5.236;2022-09-09T16:12:01;5.63;;;1.80;;
68214;SDS011;55036;52.138;5.236;2022-09-09T16:14:32;1.90;;;1.30;;
68214;SDS011;55036;52.138;5.236;2022-09-09T16:17:02;4.38;;;1.50;;
68214;SDS011;55036;52.138;5.236;2022-09-09T16:19:30;4.50;;;1.70;;
68214;SDS011;55036;52.138;5.236;2022-09-09T16:21:57;3.58;;;1.92;;
68214;SDS011;55036;52.138;5.236;2022-09-09T16:24:24;3.35;;;1.80;;
68214;SDS011;55036;52.138;5.236;2022-09-09T16:26:51;5.70;;;1.90;;
68214;SDS011;55036;52.138;5.236;2022-09-09T16:29:20;3.35;;;1.70;;
68214;SDS011;55036;52.138;5.236;2022-09-09T16:31:48;3.65;;;1.63;;
68214;SDS011;55036;52.138;5.236;2022-09-09T16:34:16;3.55;;;1.50;;
68214;SDS011;55036;52.138;5.236;2022-09-09T16:36:44;3.47;;;1.60;;
68214;SDS011;55036;52.138;5.236;2022-09-09T16:39:13;3.83;;;1.65;;
68214;SDS011;55036;52.138;5.236;2022-09-09T16:41:41;4.68;;;1.92;;
68214;SDS011;55036;52.138;5.236;2022-09-09T16:44:10;4.53;;;1.75;;
68214;SDS011;55036;52.138;5.236;2022-09-09T16:46:39;2.97;;;1.50;;
68214;SDS011;55036;52.138;5.236;2022-09-09T16:49:09;4.53;;;1.70;;
68214;SDS011;55036;52.138;5.236;2022-09-09T16:51:41;5.97;;;2.22;;
68214;SDS011;55036;52.138;5.236;2022-09-09T16:54:10;3.15;;;1.73;;
68214;SDS011;55036;52.138;5.236;2022-09-09T16:56:38;8.25;;;2.72;;
68214;SDS011;55036;52.138;5.236;2022-09-09T16:59:11;3.80;;;1.90;;
68214;SDS011;55036;52.138;5.236;2022-09-09T17:01:40;4.53;;;2.05;;
68214;SDS011;55036;52.138;5.236;2022-09-09T17:04:13;5.05;;;2.20;;
68214;SDS011;55036;52.138;5.236;2022-09-09T17:06:47;3.35;;;2.10;;
68214;SDS011;55036;52.138;5.236;2022-09-09T17:09:18;7.45;;;2.50;;
68214;SDS011;55036;52.138;5.236;2022-09-09T17:11:45;7.05;;;2.78;;
68214;SDS011;55036;52.138;5.236;2022-09-09T17:14:14;5.25;;;2.20;;
68214;SDS011;55036;52.138;5.236;2022-09-09T17:16:42;6.03;;;2.60;;